Säätilassa ei varoituksia.

Lähimmät METAR asemat

 

EFPO - Pori (mil/Civ), Finland
Distance from station: PLU 42km
Päivitetty: 27/10/2020 20:20
Enimmäkseen pilvistä
Enimmäkseen pilvistä
 Wind from EKA
Tuuli: EKA 11 km/h
Lämpötila: 9°C
Wind Chill: 7°C
Kastepiste: 9°C
Kosteus: 100%
Ilmanpaine: 1002 hPa
Clouds: Enimmäkseen pilvistä
Visibility: 10 km
Cloud details: Enimmäkseen pilvistä 213 m
2020/10/27 18:20 EFPO 271820Z AUTO 16006KT 9999 BKN007 09/09 Q1002
EFTU - Turku/Abo, Finland
Distance from station: E 68km
Päivitetty: 27/10/2020 20:20
Few Clouds
Few Clouds
 Wind from E
Tuuli: E 11 km/h
Lämpötila: 10°C
Wind Chill: 8°C
Kastepiste: 9°C
Kosteus: 94%
Ilmanpaine: 1004 hPa
Clouds: Few Clouds
Visibility: 10 km
Cloud details: Few Clouds 274 m
2020/10/27 18:20 EFTU 271820Z AUTO 18006KT 9999 FEW009 10/09 Q1004
 
EFTP - Tampere/Pirkkala, Finland
Distance from station: IKO 84km
Päivitetty: 27/10/2020 20:20
Selkeätä
Selkeätä
 Wind from ELO
Tuuli: ELO 11 km/h
Lämpötila: 9°C
Wind Chill: 7°C
Kastepiste: 8°C
Kosteus: 94%
Ilmanpaine: 1003 hPa
Yhteenveto: Selkeätä
Visibility: greater than 10 km
2020/10/27 18:20 EFTP 271820Z AUTO 20006KT CAVOK 09/08 Q1003